Time;durP1;ratioP1;P1;durP2;ratioP2;P2;SDS_P1;SDS_P2;PMS_P1;PMS_P2;Temp;Humidity;BMP_temperature;BMP_pressure;BME280_temperature;BME280_humidity;BME280_pressure;Samples;Min_cycle;Max_cycle;Signal;HPM_P1;HPM_P2
2022/10/22 00:00:53;;;;;;;;;;;;;;;16.93;65.95;99202.63;5114132;28;19924;-60
2022/10/22 00:03:20;;;;;;;;;;;;;;;16.91;66.44;99204.59;5114116;28;19920;-62
2022/10/22 00:05:47;;;;;;;;;;;;;;;16.91;66.68;99206.41;5113944;28;20371;-61
2022/10/22 00:08:13;;;;;;;;;;;;;;;16.91;66.26;99215.22;5113671;28;19924;-61
2022/10/22 00:10:40;;;;;;;;;;;;;;;16.92;66.48;99210.75;5113812;28;19919;-61
2022/10/22 00:13:07;;;;;;;;;;;;;;;16.92;66.16;99219.56;5114148;28;19919;-60
2022/10/22 00:15:33;;;;;;;;;;;;;;;16.92;66.01;99221.38;5113758;28;20039;-62
2022/10/22 00:18:00;;;;;;;;;;;;;;;16.92;65.91;99232.00;5113592;28;19920;-62
2022/10/22 00:20:26;;;;;;;;;;;;;;;16.90;66.03;99240.13;5113447;28;20006;-61
2022/10/22 00:22:53;;;;;;;;;;;;;;;16.89;66.02;99251.75;5113588;28;19920;-60
2022/10/22 00:25:20;;;;;;;;;;;;;;;16.87;65.85;99259.03;5113415;28;19931;-61
2022/10/22 00:27:46;;;;;;;;;;;;;;;16.86;65.78;99254.66;5112402;28;19974;-60
2022/10/22 00:30:13;;;;;;;;;;;;;;;16.84;65.87;99261.09;5113513;28;19963;-60
2022/10/22 00:32:40;;;;;;;;;;;;;;;16.83;65.68;99256.78;5113238;28;20657;-60
2022/10/22 00:35:07;;;;;;;;;;;;;;;16.81;65.58;99246.28;5111636;28;19919;-60
2022/10/22 00:37:34;;;;;;;;;;;;;;;16.79;65.65;99249.09;5110847;27;19920;-62
2022/10/22 00:40:00;;;;;;;;;;;;;;;16.78;65.48;99251.88;5112771;28;20346;-63
2022/10/22 00:42:29;;;;;;;;;;;;;;;16.77;65.67;99245.75;5113031;28;20385;-60
2022/10/22 00:45:01;;;;;;;;;;;;;;;16.75;65.72;99250.34;5113279;28;20395;-60
2022/10/22 00:47:34;;;;;;;;;;;;;;;16.74;65.43;99250.50;5112897;28;19967;-60
2022/10/22 00:50:02;;;;;;;;;;;;;;;16.72;65.47;99247.97;5112814;28;20034;-62
2022/10/22 00:52:28;;;;;;;;;;;;;;;16.71;65.54;99245.47;5112877;28;20326;-63
2022/10/22 00:54:56;;;;;;;;;;;;;;;16.69;65.95;99250.91;5112787;28;19919;-62
2022/10/22 00:57:22;;;;;;;;;;;;;;;16.67;65.87;99250.19;5112824;28;19919;-59
2022/10/22 00:59:49;;;;;;;;;;;;;;;16.65;65.89;99244.19;5112756;28;19993;-61
2022/10/22 01:02:17;;;;;;;;;;;;;;;16.63;65.96;99249.66;5111667;28;19970;-63
2022/10/22 01:04:43;;;;;;;;;;;;;;;16.63;65.93;99251.47;5112798;28;19920;-60
2022/10/22 01:07:17;;;;;;;;;;;;;;;16.62;65.97;99252.44;5112618;28;20371;-60
2022/10/22 01:09:56;;;;;;;;;;;;;;;16.61;65.89;99251.63;5112397;28;19920;-60
2022/10/22 01:12:38;;;;;;;;;;;;;;;16.61;66.14;99248.09;5111301;28;19998;-64
2022/10/22 01:15:05;;;;;;;;;;;;;;;16.59;66.39;99247.41;5111365;28;19920;-62
2022/10/22 01:17:31;;;;;;;;;;;;;;;16.59;66.42;99252.75;5112352;28;19923;-61
2022/10/22 01:20:04;;;;;;;;;;;;;;;16.59;66.12;99253.56;5112496;28;19978;-61
2022/10/22 01:22:40;;;;;;;;;;;;;;;16.58;66.40;99259.00;5112592;28;19966;-60
2022/10/22 01:25:09;;;;;;;;;;;;;;;16.59;66.02;99263.38;5112656;28;20325;-60
2022/10/22 01:27:59;;;;;;;;;;;;;;;16.58;66.31;99265.16;5112523;28;19959;-60
2022/10/22 01:30:26;;;;;;;;;;;;;;;16.58;66.47;99265.16;5101508;28;19974;-60
2022/10/22 01:32:59;;;;;;;;;;;;;;;16.59;66.56;99258.06;5112253;28;20448;-60
2022/10/22 01:35:27;;;;;;;;;;;;;;;16.60;66.64;99259.72;5112255;28;19979;-62
2022/10/22 01:37:58;;;;;;;;;;;;;;;16.61;67.05;99256.06;5110889;28;19919;-61
2022/10/22 01:40:26;;;;;;;;;;;;;;;16.62;66.57;99263.06;5111069;28;19984;-60
2022/10/22 01:43:13;;;;;;;;;;;;;;;16.64;66.28;99256.63;5110753;28;20405;-60
2022/10/22 01:45:47;;;;;;;;;;;;;;;16.65;66.17;99253.03;5112321;28;19924;-61
2022/10/22 01:48:40;;;;;;;;;;;;;;;16.67;66.08;99251.03;5110880;28;19928;-63
2022/10/22 01:51:17;;;;;;;;;;;;;;;16.68;66.00;99252.72;5111000;28;20010;-60
2022/10/22 01:53:53;;;;;;;;;;;;;;;16.70;66.39;99251.75;5110977;28;19920;-59
2022/10/22 01:56:28;;;;;;;;;;;;;;;16.71;66.29;99258.75;5112072;28;19924;-60
2022/10/22 01:58:55;;;;;;;;;;;;;;;16.71;66.26;99259.56;5110664;28;19965;-61
2022/10/22 02:01:24;;;;;;;;;;;;;;;16.73;66.07;99254.97;5111926;28;19923;-61
2022/10/22 02:04:14;;;;;;;;;;;;;;;16.74;66.09;99259.28;5111886;28;19920;-61
2022/10/22 02:06:42;;;;;;;;;;;;;;;16.76;65.94;99260.00;5111624;28;19924;-61
2022/10/22 02:09:09;;;;;;;;;;;;;;;16.78;65.84;99254.53;5115913;28;19964;-61
2022/10/22 02:11:36;;;;;;;;;;;;;;;16.79;65.92;99253.56;5116023;28;19927;-62
2022/10/22 02:14:04;;;;;;;;;;;;;;;16.78;65.87;99254.53;5116213;28;20006;-61
2022/10/22 02:16:35;;;;;;;;;;;;;;;16.78;66.04;99252.72;5115141;28;19927;-62
2022/10/22 02:19:05;;;;;;;;;;;;;;;16.77;65.82;99256.38;5115753;28;20010;-60
2022/10/22 02:21:32;;;;;;;;;;;;;;;16.76;65.79;99259.16;5116072;28;20283;-60
2022/10/22 02:23:58;;;;;;;;;;;;;;;16.75;65.65;99252.19;5116049;27;19919;-60
2022/10/22 02:26:32;;;;;;;;;;;;;;;16.74;65.57;99240.69;5115838;28;19973;-61
2022/10/22 02:29:02;;;;;;;;;;;;;;;16.74;65.51;99240.69;5115699;28;19924;-61
2022/10/22 02:31:31;;;;;;;;;;;;;;;16.73;65.64;99247.00;5115856;28;19923;-59
2022/10/22 02:34:00;;;;;;;;;;;;;;;16.71;65.57;99243.63;5115588;28;19949;-60
2022/10/22 02:36:27;;;;;;;;;;;;;;;16.70;65.69;99247.25;5114396;28;19923;-60
2022/10/22 02:38:54;;;;;;;;;;;;;;;16.70;65.49;99247.25;5115835;28;19972;-60
2022/10/22 02:41:21;;;;;;;;;;;;;;;16.67;65.31;99245.72;5115551;27;19920;-61
2022/10/22 02:43:50;;;;;;;;;;;;;;;16.66;65.51;99245.88;5115495;28;19974;-60
2022/10/22 02:46:16;;;;;;;;;;;;;;;16.64;65.41;99248.66;5115587;28;19923;-60
2022/10/22 02:48:43;;;;;;;;;;;;;;;16.62;65.39;99241.81;5115335;28;19923;-60
2022/10/22 02:51:10;;;;;;;;;;;;;;;16.60;65.42;99247.25;5115305;28;19927;-61
2022/10/22 02:53:36;;;;;;;;;;;;;;;16.59;65.55;99242.09;5115771;28;19959;-60
2022/10/22 02:56:03;;;;;;;;;;;;;;;16.57;65.51;99246.72;5115614;28;20432;-60
2022/10/22 02:58:30;;;;;;;;;;;;;;;16.53;65.73;99249.63;5114843;28;19924;-61
2022/10/22 03:00:56;;;;;;;;;;;;;;;16.53;65.64;99252.28;5115271;28;19927;-60
2022/10/22 03:03:23;;;;;;;;;;;;;;;16.52;65.54;99263.09;5115139;28;20295;-61
2022/10/22 03:05:50;;;;;;;;;;;;;;;16.49;65.66;99256.19;5113705;28;19920;-62
2022/10/22 03:08:17;;;;;;;;;;;;;;;16.49;65.48;99260.69;5115102;28;19927;-60
2022/10/22 03:10:43;;;;;;;;;;;;;;;16.47;65.76;99260.81;5114908;28;19924;-61
2022/10/22 03:13:10;;;;;;;;;;;;;;;16.45;65.98;99260.09;5115037;28;19974;-61
2022/10/22 03:15:36;;;;;;;;;;;;;;;16.44;65.50;99250.47;5114921;28;19920;-61
2022/10/22 03:18:02;;;;;;;;;;;;;;;16.42;65.57;99255.09;5113619;28;19989;-61
2022/10/22 03:20:29;;;;;;;;;;;;;;;16.44;65.92;99258.44;5113544;28;19924;-61
2022/10/22 03:22:56;;;;;;;;;;;;;;;16.42;66.02;99257.75;5113687;28;19971;-59
2022/10/22 03:25:24;;;;;;;;;;;;;;;16.42;65.82;99257.75;5113574;28;19969;-60
2022/10/22 03:27:51;;;;;;;;;;;;;;;16.42;65.56;99260.41;5114563;28;19923;-59
2022/10/22 03:30:17;;;;;;;;;;;;;;;16.41;66.00;99261.41;5114522;28;19920;-59
2022/10/22 03:32:44;;;;;;;;;;;;;;;16.42;65.83;99263.88;5114500;28;19919;-61
2022/10/22 03:35:10;;;;;;;;;;;;;;;16.42;65.83;99263.06;5114350;28;20409;-60
2022/10/22 03:37:37;;;;;;;;;;;;;;;16.41;65.99;99261.41;5114545;28;19978;-60
2022/10/22 03:40:05;;;;;;;;;;;;;;;16.42;65.89;99257.75;5114069;28;19926;-61
2022/10/22 03:42:32;;;;;;;;;;;;;;;16.41;65.66;99262.22;5113174;28;19962;-60
2022/10/22 03:44:58;;;;;;;;;;;;;;;16.42;65.86;99260.41;5114438;28;19969;-60
2022/10/22 03:47:25;;;;;;;;;;;;;;;16.41;65.73;99258.72;5114257;28;19970;-60
2022/10/22 03:49:51;;;;;;;;;;;;;;;16.41;65.74;99267.53;5114132;28;19920;-60
2022/10/22 03:52:18;;;;;;;;;;;;;;;16.41;65.82;99266.69;5114174;28;19949;-59
2022/10/22 03:54:44;;;;;;;;;;;;;;;16.40;65.77;99268.50;5114364;28;19920;-63
2022/10/22 03:57:11;;;;;;;;;;;;;;;16.39;65.95;99271.28;5114109;28;19927;-61
2022/10/22 03:59:39;;;;;;;;;;;;;;;16.39;65.94;99279.25;5113858;28;20368;-60
2022/10/22 04:02:05;;;;;;;;;;;;;;;16.39;65.83;99279.25;5113823;28;19927;-60
2022/10/22 04:04:32;;;;;;;;;;;;;;;16.38;65.84;99272.28;5114123;28;19923;-60
2022/10/22 04:06:58;;;;;;;;;;;;;;;16.37;65.68;99279.41;5113571;28;19919;-62
2022/10/22 04:09:25;;;;;;;;;;;;;;;16.36;65.78;99280.38;5113770;28;20359;-60
2022/10/22 04:11:52;;;;;;;;;;;;;;;16.36;65.76;99274.22;5113738;28;20047;-60
2022/10/22 04:14:18;;;;;;;;;;;;;;;16.35;65.76;99278.72;5113779;28;19920;-61
2022/10/22 04:16:45;;;;;;;;;;;;;;;16.34;65.74;99274.34;5113775;28;19923;-60
2022/10/22 04:19:12;;;;;;;;;;;;;;;16.34;65.71;99278.84;5113349;28;19966;-60
2022/10/22 04:21:38;;;;;;;;;;;;;;;16.33;65.84;99278.00;5113606;28;20425;-61
2022/10/22 04:24:05;;;;;;;;;;;;;;;16.32;65.90;99278.13;5113537;28;20516;-57
2022/10/22 04:26:31;;;;;;;;;;;;;;;16.31;65.64;99287.94;5113435;28;19966;-60
2022/10/22 04:28:58;;;;;;;;;;;;;;;16.31;65.83;99287.06;5112783;28;19923;-61
2022/10/22 04:31:25;;;;;;;;;;;;;;;16.30;65.72;99285.41;5113564;28;19920;-60
2022/10/22 04:33:53;;;;;;;;;;;;;;;16.27;65.75;99287.34;5113520;28;19920;-64
2022/10/22 04:36:20;;;;;;;;;;;;;;;16.27;65.64;99292.66;5112227;28;19920;-61
2022/10/22 04:38:50;;;;;;;;;;;;;;;16.26;65.72;99279.53;5112952;28;19920;-60
2022/10/22 04:41:18;;;;;;;;;;;;;;;16.25;65.72;99286.66;5112896;28;19965;-60
2022/10/22 04:43:44;;;;;;;;;;;;;;;16.23;65.85;99285.94;5113141;28;19919;-60
2022/10/22 04:46:12;;;;;;;;;;;;;;;16.23;65.54;99285.94;5112909;28;19972;-59
2022/10/22 04:48:40;;;;;;;;;;;;;;;16.22;66.09;99289.56;5111675;28;19931;-60
2022/10/22 04:51:07;;;;;;;;;;;;;;;16.21;65.69;99287.91;5111836;28;19927;-59
2022/10/22 04:53:34;;;;;;;;;;;;;;;16.20;65.91;99283.56;5112256;28;20383;-63
2022/10/22 04:56:12;;;;;;;;;;;;;;;16.20;66.12;99291.53;5112868;28;19924;-60
2022/10/22 04:58:38;;;;;;;;;;;;;;;16.20;66.03;99291.53;5111374;28;19919;-61
2022/10/22 05:01:16;;;;;;;;;;;;;;;16.19;66.04;99284.56;5112553;28;19990;-60
2022/10/22 05:03:43;;;;;;;;;;;;;;;16.19;66.02;99284.56;5112542;28;19953;-60
2022/10/22 05:06:10;;;;;;;;;;;;;;;16.19;66.11;99291.66;5111228;28;19946;-62
2022/10/22 05:08:38;;;;;;;;;;;;;;;16.19;66.43;99296.97;5110781;28;19919;-63
2022/10/22 05:11:11;;;;;;;;;;;;;;;16.19;66.37;99300.47;5112058;28;20326;-60
2022/10/22 05:13:37;;;;;;;;;;;;;;;16.19;66.27;99305.78;5112006;28;19926;-60
2022/10/22 05:16:04;;;;;;;;;;;;;;;16.21;66.54;99293.22;5112005;28;20283;-63
2022/10/22 05:18:32;;;;;;;;;;;;;;;16.21;66.50;99298.53;5111594;28;19980;-62
2022/10/22 05:20:59;;;;;;;;;;;;;;;16.23;66.38;99301.88;5111999;28;20373;-59
2022/10/22 05:23:27;;;;;;;;;;;;;;;16.24;66.90;99302.72;5111987;28;19978;-59
2022/10/22 05:25:53;;;;;;;;;;;;;;;16.25;66.43;99299.94;5111340;28;19919;-58
2022/10/22 05:28:20;;;;;;;;;;;;;;;16.24;66.42;99308.88;5112481;28;19919;-58
2022/10/22 05:30:54;;;;;;;;;;;;;;;16.25;66.22;99304.38;5110925;28;19923;-63
2022/10/22 05:33:21;;;;;;;;;;;;;;;16.24;66.05;99303.56;5110978;28;19971;-59
2022/10/22 05:35:50;;;;;;;;;;;;;;;16.23;66.05;99306.34;5112324;28;20421;-60
2022/10/22 05:38:16;;;;;;;;;;;;;;;16.22;66.10;99304.69;5111111;28;19928;-60
2022/10/22 05:40:43;;;;;;;;;;;;;;;16.22;66.00;99318.78;5111520;28;19920;-63
2022/10/22 05:43:10;;;;;;;;;;;;;;;16.21;66.16;99305.63;5112282;28;20402;-61
2022/10/22 05:45:37;;;;;;;;;;;;;;;16.21;66.04;99311.78;5112259;28;19949;-59
2022/10/22 05:48:04;;;;;;;;;;;;;;;16.19;66.11;99319.06;5112191;28;20318;-61
2022/10/22 05:50:31;;;;;;;;;;;;;;;16.18;65.75;99328.00;5111942;28;19927;-61
2022/10/22 05:52:57;;;;;;;;;;;;;;;16.18;65.93;99317.38;5111359;28;19946;-62
2022/10/22 05:55:24;;;;;;;;;;;;;;;16.17;66.21;99323.66;5111270;28;19962;-60
2022/10/22 05:57:50;;;;;;;;;;;;;;;16.15;65.92;99322.97;5110885;28;20041;-60
2022/10/22 06:00:17;;;;;;;;;;;;;;;16.16;65.90;99327.28;5111056;28;20022;-61
2022/10/22 06:02:43;;;;;;;;;;;;;;;16.15;66.01;99336.25;5110811;28;20022;-61
2022/10/22 06:05:10;;;;;;;;;;;;;;;16.13;66.02;99323.09;5111205;28;19924;-61
2022/10/22 06:07:36;;;;;;;;;;;;;;;16.13;66.19;99327.56;5111941;28;19966;-61
2022/10/22 06:10:03;;;;;;;;;;;;;;;16.11;66.21;99327.69;5111800;28;19924;-60
2022/10/22 06:12:29;;;;;;;;;;;;;;;16.11;66.38;99322.38;5112110;28;19924;-62
2022/10/22 06:14:56;;;;;;;;;;;;;;;16.12;66.39;99331.19;5111757;28;19966;-60
2022/10/22 06:17:22;;;;;;;;;;;;;;;16.13;66.52;99343.50;5111711;28;19965;-60
2022/10/22 06:19:49;;;;;;;;;;;;;;;16.13;66.45;99339.03;5111440;28;19923;-61
2022/10/22 06:22:15;;;;;;;;;;;;;;;16.14;66.38;99334.53;5110654;28;19941;-60
2022/10/22 06:24:42;;;;;;;;;;;;;;;16.14;66.36;99343.34;5111664;28;19965;-61
2022/10/22 06:27:10;;;;;;;;;;;;;;;16.15;66.26;99346.88;5111985;28;19924;-60
2022/10/22 06:29:37;;;;;;;;;;;;;;;16.17;66.30;99358.19;5111577;28;20006;-61
2022/10/22 06:32:03;;;;;;;;;;;;;;;16.18;66.28;99362.50;5111681;28;19920;-60
2022/10/22 06:34:30;;;;;;;;;;;;;;;16.19;66.44;99364.22;5111755;28;19935;-64
2022/10/22 06:36:56;;;;;;;;;;;;;;;16.20;66.26;99368.53;5110603;28;19919;-60
2022/10/22 06:39:23;;;;;;;;;;;;;;;16.21;66.39;99372.88;5111334;28;19969;-60
2022/10/22 06:41:50;;;;;;;;;;;;;;;16.21;66.51;99378.19;5111754;28;20014;-59
2022/10/22 06:44:18;;;;;;;;;;;;;;;16.23;66.49;99376.22;5111499;28;19924;-63
2022/10/22 06:46:47;;;;;;;;;;;;;;;16.24;66.41;99377.06;5111725;28;19919;-61
2022/10/22 06:49:14;;;;;;;;;;;;;;;16.25;66.45;99384.06;5111257;28;19949;-60
2022/10/22 06:51:41;;;;;;;;;;;;;;;16.26;66.26;99386.59;5112558;28;20018;-62
2022/10/22 06:54:07;;;;;;;;;;;;;;;16.28;66.39;99402.38;5115296;28;19949;-60
2022/10/22 06:56:34;;;;;;;;;;;;;;;16.28;66.51;99408.56;5115341;28;19965;-60
2022/10/22 06:59:00;;;;;;;;;;;;;;;16.31;66.48;99404.78;5114789;28;20497;-59
2022/10/22 07:01:30;;;;;;;;;;;;;;;16.33;66.34;99404.66;5115469;28;19923;-60
2022/10/22 07:03:57;;;;;;;;;;;;;;;16.34;66.44;99417.78;5115266;28;19976;-62
2022/10/22 07:06:24;;;;;;;;;;;;;;;16.36;66.27;99413.19;5115091;28;19920;-60
2022/10/22 07:08:52;;;;;;;;;;;;;;;16.38;66.44;99410.41;5115162;28;19923;-62
2022/10/22 07:11:20;;;;;;;;;;;;;;;16.41;66.29;99418.13;5113692;28;19927;-61
2022/10/22 07:13:47;;;;;;;;;;;;;;;16.42;66.39;99422.44;5114071;28;19984;-60
2022/10/22 07:16:14;;;;;;;;;;;;;;;16.44;66.27;99420.47;5114807;28;19920;-60
2022/10/22 07:18:41;;;;;;;;;;;;;;;16.45;66.41;99416.03;5113514;28;20362;-63
2022/10/22 07:21:08;;;;;;;;;;;;;;;16.47;66.55;99425.53;5114719;28;19981;-61
2022/10/22 07:23:35;;;;;;;;;;;;;;;16.49;66.48;99428.06;5113638;28;19959;-62
2022/10/22 07:26:03;;;;;;;;;;;;;;;16.50;66.29;99433.25;5114539;28;19923;-60
2022/10/22 07:28:31;;;;;;;;;;;;;;;16.53;66.65;99430.31;5114481;28;19920;-61
2022/10/22 07:30:58;;;;;;;;;;;;;;;16.56;66.72;99423.88;5114467;28;19927;-60
2022/10/22 07:33:24;;;;;;;;;;;;;;;16.59;66.75;99438.72;5114706;28;20034;-60
2022/10/22 07:35:56;;;;;;;;;;;;;;;16.62;66.72;99443.75;5114622;28;19942;-60
2022/10/22 07:38:22;;;;;;;;;;;;;;;16.64;66.83;99447.97;5114255;28;19920;-60
2022/10/22 07:40:49;;;;;;;;;;;;;;;16.68;66.96;99443.22;5114285;28;19928;-60
2022/10/22 07:43:15;;;;;;;;;;;;;;;16.73;67.11;99450.78;5114626;28;19920;-63
2022/10/22 07:45:42;;;;;;;;;;;;;;;16.76;67.56;99439.88;5114494;28;20018;-61
2022/10/22 07:48:08;;;;;;;;;;;;;;;16.79;67.21;99450.25;5114250;28;20006;-60
2022/10/22 07:50:35;;;;;;;;;;;;;;;16.83;67.36;99448.16;5114164;28;19923;-61
2022/10/22 07:53:01;;;;;;;;;;;;;;;16.85;67.34;99452.38;5114133;28;20385;-60
2022/10/22 07:55:28;;;;;;;;;;;;;;;16.88;66.91;99453.91;5114320;28;19930;-62
2022/10/22 07:57:54;;;;;;;;;;;;;;;16.89;67.20;99452.91;5114315;28;19923;-61
2022/10/22 08:00:21;;;;;;;;;;;;;;;16.92;67.06;99450.00;5113752;28;20018;-60
2022/10/22 08:02:51;;;;;;;;;;;;;;;16.91;67.16;99448.31;5113769;28;20458;-61
2022/10/22 08:05:17;;;;;;;;;;;;;;;16.94;66.95;99448.88;5113766;28;20364;-60
2022/10/22 08:07:44;;;;;;;;;;;;;;;16.95;67.15;99455.06;5114033;28;19923;-60
2022/10/22 08:10:10;;;;;;;;;;;;;;;16.97;67.12;99457.59;5113614;28;20022;-63
2022/10/22 08:12:37;;;;;;;;;;;;;;;16.97;66.98;99455.75;5113982;28;19963;-60
2022/10/22 08:15:04;;;;;;;;;;;;;;;16.98;66.87;99459.25;5114015;28;19927;-62
2022/10/22 08:17:31;;;;;;;;;;;;;;;16.97;66.95;99463.72;5113766;28;19924;-62
2022/10/22 08:19:57;;;;;;;;;;;;;;;16.98;67.23;99461.91;5113386;28;19920;-60
2022/10/22 08:22:24;;;;;;;;;;;;;;;16.98;66.79;99462.75;5113674;28;19919;-60
2022/10/22 08:24:51;;;;;;;;;;;;;;;16.97;67.12;99471.69;5114125;28;19919;-60
2022/10/22 08:27:17;;;;;;;;;;;;;;;16.98;66.90;99464.56;5113503;28;20420;-60
2022/10/22 08:29:43;;;;;;;;;;;;;;;16.99;66.61;99463.59;5113454;28;19919;-60
2022/10/22 08:32:10;;;;;;;;;;;;;;;16.99;66.80;99469.75;5113402;28;19950;-60
2022/10/22 08:34:36;;;;;;;;;;;;;;;16.99;66.72;99467.09;5113563;28;19924;-64
2022/10/22 08:37:04;;;;;;;;;;;;;;;17.01;66.78;99477.59;5113334;28;19919;-61
2022/10/22 08:39:30;;;;;;;;;;;;;;;17.02;66.85;99487.25;5113040;28;19941;-60
2022/10/22 08:42:16;;;;;;;;;;;;;;;17.05;67.48;99479.88;5113059;28;20375;-63
2022/10/22 08:44:51;;;;;;;;;;;;;;;17.08;67.30;99477.94;5113287;28;20014;-61
2022/10/22 08:47:36;;;;;;;;;;;;;;;17.12;67.92;99482.00;5111943;28;20011;-60
2022/10/22 08:50:03;;;;;;;;;;;;;;;17.17;67.43;99477.09;5113547;28;19932;-61
2022/10/22 08:52:32;;;;;;;;;;;;;;;17.21;67.45;99475.84;5113122;28;19919;-60
2022/10/22 08:55:00;;;;;;;;;;;;;;;17.28;67.49;99487.63;5113227;28;19919;-61
2022/10/22 08:57:27;;;;;;;;;;;;;;;17.34;67.23;99488.88;5112949;28;19919;-60
2022/10/22 09:00:06;;;;;;;;;;;;;;;17.43;67.60;99488.03;5112593;28;19976;-62
2022/10/22 09:02:59;;;;;;;;;;;;;;;17.53;67.79;99479.25;5111741;28;19973;-60
2022/10/22 09:05:28;;;;;;;;;;;;;;;17.64;67.88;99487.06;5109907;28;19948;-63
2022/10/22 09:07:56;;;;;;;;;;;;;;;17.77;68.01;99485.94;5112827;28;19920;-60
2022/10/22 09:10:24;;;;;;;;;;;;;;;17.86;67.58;99493.09;5111236;28;19965;-60
2022/10/22 09:12:51;;;;;;;;;;;;;;;17.96;67.44;99496.59;5112706;28;20346;-60
2022/10/22 09:15:18;;;;;;;;;;;;;;;18.06;67.43;99495.75;5112569;28;20334;-62
2022/10/22 09:17:44;;;;;;;;;;;;;;;18.12;67.47;99500.50;5112629;28;19923;-61
2022/10/22 09:20:27;;;;;;;;;;;;;;;18.20;67.18;99489.13;5112376;28;20018;-60
2022/10/22 09:23:12;;;;;;;;;;;;;;;18.26;67.08;99501.03;5112348;28;19977;-62
2022/10/22 09:25:39;;;;;;;;;;;;;;;18.30;67.03;99500.63;5112525;28;19920;-60
2022/10/22 09:28:07;;;;;;;;;;;;;;;18.35;67.03;99503.69;5112045;28;20482;-62
2022/10/22 09:30:36;;;;;;;;;;;;;;;18.42;67.22;99501.28;5112290;28;19949;-61
2022/10/22 09:33:06;;;;;;;;;;;;;;;18.48;67.28;99508.72;5111254;28;19969;-60
2022/10/22 09:35:53;;;;;;;;;;;;;;;18.57;66.93;99504.31;5111316;28;19962;-61
2022/10/22 09:38:21;;;;;;;;;;;;;;;18.65;67.01;99508.09;5111788;28;19982;-59
2022/10/22 09:40:49;;;;;;;;;;;;;;;18.71;66.76;99510.16;5112350;28;19955;-63
2022/10/22 09:43:16;;;;;;;;;;;;;;;18.78;66.82;99510.41;5112249;28;19923;-64
2022/10/22 09:45:44;;;;;;;;;;;;;;;18.84;66.60;99510.66;5112195;28;20365;-60
2022/10/22 09:48:16;;;;;;;;;;;;;;;18.91;66.59;99515.41;5112052;28;19981;-63
2022/10/22 09:50:44;;;;;;;;;;;;;;;18.97;66.50;99520.16;5111054;28;20032;-61
2022/10/22 09:53:28;;;;;;;;;;;;;;;19.02;66.53;99518.72;5111015;28;20325;-62
2022/10/22 09:55:56;;;;;;;;;;;;;;;19.11;66.57;99526.84;5111178;28;19966;-62
2022/10/22 09:58:23;;;;;;;;;;;;;;;19.18;66.74;99532.44;5110522;28;20293;-61
2022/10/22 10:00:55;;;;;;;;;;;;;;;19.22;66.35;99537.31;5111907;28;19965;-60
2022/10/22 10:03:22;;;;;;;;;;;;;;;19.26;66.15;99537.88;5110799;28;19989;-60
2022/10/22 10:06:07;;;;;;;;;;;;;;;19.28;65.78;99538.53;5110931;28;19947;-60
2022/10/22 10:08:34;;;;;;;;;;;;;;;19.30;65.99;99543.72;5110796;28;19920;-62
2022/10/22 10:11:15;;;;;;;;;;;;;;;19.31;65.79;99546.25;5111767;28;19973;-60
2022/10/22 10:13:54;;;;;;;;;;;;;;;19.33;65.97;99554.13;5111970;28;19978;-60
2022/10/22 10:16:20;;;;;;;;;;;;;;;19.33;65.58;99549.59;5111779;28;20367;-60
2022/10/22 10:18:47;;;;;;;;;;;;;;;19.34;65.82;99555.78;5111555;28;19965;-65
2022/10/22 10:21:37;;;;;;;;;;;;;;;19.34;65.36;99559.31;5111799;28;20375;-60
2022/10/22 10:24:22;;;;;;;;;;;;;;;19.33;65.21;99568.28;5111828;28;19920;-60
2022/10/22 10:26:49;;;;;;;;;;;;;;;19.32;65.40;99565.78;5113178;28;19970;-60
2022/10/22 10:29:22;;;;;;;;;;;;;;;19.30;65.00;99568.59;5114577;28;19927;-61
2022/10/22 10:31:58;;;;;;;;;;;;;;;19.30;65.20;99568.59;5116166;28;20019;-63
2022/10/22 10:34:34;;;;;;;;;;;;;;;19.28;65.43;99570.56;5115952;28;20355;-60
2022/10/22 10:37:10;;;;;;;;;;;;;;;19.27;64.93;99564.41;5115754;28;20423;-59
2022/10/22 10:39:40;;;;;;;;;;;;;;;19.28;65.03;99573.22;5115487;28;20355;-60
2022/10/22 10:42:06;;;;;;;;;;;;;;;19.28;65.40;99573.22;5115531;28;20044;-60
2022/10/22 10:44:43;;;;;;;;;;;;;;;19.30;65.28;99581.94;5115694;28;19923;-61
2022/10/22 10:47:23;;;;;;;;;;;;;;;19.31;65.19;99575.63;5114290;28;19978;-62
2022/10/22 10:49:52;;;;;;;;;;;;;;;19.33;64.85;99578.97;5115372;28;19924;-62
2022/10/22 10:52:26;;;;;;;;;;;;;;;19.34;64.91;99577.13;5114368;28;20321;-60
2022/10/22 10:55:02;;;;;;;;;;;;;;;19.35;64.81;99577.00;5115519;28;19969;-60
2022/10/22 10:57:45;;;;;;;;;;;;;;;19.34;65.13;99580.66;5115415;28;19926;-61
2022/10/22 11:00:17;;;;;;;;;;;;;;;19.34;64.89;99583.31;5115228;28;19961;-62
2022/10/22 11:02:43;;;;;;;;;;;;;;;19.35;65.09;99586.81;5114126;28;20337;-59
2022/10/22 11:05:19;;;;;;;;;;;;;;;19.34;65.04;99579.81;5115351;28;19923;-61
2022/10/22 11:07:53;;;;;;;;;;;;;;;19.35;64.85;99582.34;5115387;28;19923;-61
2022/10/22 11:10:35;;;;;;;;;;;;;;;19.36;65.02;99591.19;5113561;28;19926;-61
2022/10/22 11:13:25;;;;;;;;;;;;;;;19.36;64.77;99580.50;5115038;28;19919;-60
2022/10/22 11:16:11;;;;;;;;;;;;;;;19.38;64.64;99589.19;5107096;28;19927;-61
2022/10/22 11:18:40;;;;;;;;;;;;;;;19.39;64.06;99588.19;5114730;28;20014;-59
2022/10/22 11:21:20;;;;;;;;;;;;;;;19.44;64.80;99593.09;5115076;28;20389;-61
2022/10/22 11:23:53;;;;;;;;;;;;;;;19.47;64.69;99588.28;5113657;28;20010;-64
2022/10/22 11:26:22;;;;;;;;;;;;;;;19.53;65.26;99595.72;5113636;28;19973;-61
2022/10/22 11:28:52;;;;;;;;;;;;;;;19.62;65.46;99593.16;5114590;28;20427;-60
2022/10/22 11:31:19;;;;;;;;;;;;;;;19.67;64.67;99601.53;5114627;28;20011;-62
2022/10/22 11:34:11;;;;;;;;;;;;;;;19.71;64.84;99600.25;5114705;28;19920;-61
2022/10/22 11:36:58;;;;;;;;;;;;;;;19.75;64.60;99600.78;5099688;28;19926;-60
2022/10/22 11:39:37;;;;;;;;;;;;;;;19.75;64.32;99600.78;5113161;28;19939;-62
2022/10/22 11:42:05;;;;;;;;;;;;;;;19.74;64.06;99593.75;5114589;28;20420;-60
2022/10/22 11:44:44;;;;;;;;;;;;;;;19.74;64.17;99596.44;5114384;28;19971;-60
2022/10/22 11:47:31;;;;;;;;;;;;;;;19.71;64.21;99597.56;5113387;28;20014;-60
2022/10/22 11:50:18;;;;;;;;;;;;;;;19.70;64.18;99603.88;5113966;28;19924;-62
2022/10/22 11:53:03;;;;;;;;;;;;;;;19.69;63.40;99596.06;5114385;28;19919;-62
2022/10/22 11:55:32;;;;;;;;;;;;;;;19.66;63.45;99600.69;5114193;28;20443;-61
2022/10/22 11:58:00;;;;;;;;;;;;;;;19.65;63.65;99598.16;5113119;28;19923;-62
2022/10/22 12:00:35;;;;;;;;;;;;;;;19.64;64.22;99604.50;5114148;28;20014;-61
2022/10/22 12:03:03;;;;;;;;;;;;;;;19.63;64.01;99600.16;5114199;28;19923;-64
2022/10/22 12:05:33;;;;;;;;;;;;;;;19.61;64.08;99605.66;5113978;28;19955;-62
2022/10/22 12:08:00;;;;;;;;;;;;;;;19.60;63.94;99606.63;5114297;28;19965;-60
2022/10/22 12:10:32;;;;;;;;;;;;;;;19.59;63.90;99607.59;5113767;28;19965;-60
2022/10/22 12:13:21;;;;;;;;;;;;;;;19.58;63.90;99608.59;5114028;28;19932;-63
2022/10/22 12:15:50;;;;;;;;;;;;;;;19.57;64.05;99606.94;5113742;28;19974;-61
2022/10/22 12:18:17;;;;;;;;;;;;;;;19.57;64.05;99606.94;5112740;28;19927;-61
2022/10/22 12:20:48;;;;;;;;;;;;;;;19.57;63.95;99604.25;5113962;28;19924;-60
2022/10/22 12:23:15;;;;;;;;;;;;;;;19.56;63.88;99604.41;5112564;28;20379;-60
2022/10/22 12:25:41;;;;;;;;;;;;;;;19.55;63.82;99605.41;5113804;28;19919;-61
2022/10/22 12:28:11;;;;;;;;;;;;;;;19.53;64.11;99605.56;5113331;28;19919;-64
2022/10/22 12:30:38;;;;;;;;;;;;;;;19.51;63.95;99604.88;5113701;28;19963;-63
2022/10/22 12:33:06;;;;;;;;;;;;;;;19.50;63.93;99605.84;5113801;28;19923;-63
2022/10/22 12:35:34;;;;;;;;;;;;;;;19.48;63.92;99605.16;5112162;28;19919;-62
2022/10/22 12:38:04;;;;;;;;;;;;;;;19.46;63.90;99607.97;5113200;28;19923;-61
2022/10/22 12:40:33;;;;;;;;;;;;;;;19.44;63.95;99611.78;5113449;28;19926;-61
2022/10/22 12:43:13;;;;;;;;;;;;;;;19.40;63.75;99611.25;5113148;28;19920;-61
2022/10/22 12:45:42;;;;;;;;;;;;;;;19.37;63.61;99614.22;5112329;28;19919;-61
2022/10/22 12:48:29;;;;;;;;;;;;;;;19.34;63.71;99617.16;5113060;28;19919;-61
2022/10/22 12:50:59;;;;;;;;;;;;;;;19.30;63.58;99618.44;5112730;28;19919;-60
2022/10/22 12:53:38;;;;;;;;;;;;;;;19.25;63.91;99614.41;5111974;28;19920;-60
2022/10/22 12:56:12;;;;;;;;;;;;;;;19.20;63.65;99618.50;5111838;28;19927;-62
2022/10/22 12:58:47;;;;;;;;;;;;;;;19.12;63.79;99617.41;5108210;28;19965;-62
2022/10/22 13:01:15;;;;;;;;;;;;;;;19.06;63.97;99619.84;5111275;28;20383;-60